createdAt,value
2023-01-30T00:01:29.494Z,4.54
2023-01-30T00:03:57.771Z,4.54
2023-01-30T00:06:26.563Z,4.54
2023-01-30T00:08:54.992Z,4.54
2023-01-30T00:11:23.048Z,4.54
2023-01-30T00:13:52.377Z,4.54
2023-01-30T00:16:20.554Z,4.56
2023-01-30T00:18:48.789Z,4.56
2023-01-30T00:21:17.382Z,4.56
2023-01-30T00:23:46.279Z,4.57
2023-01-30T00:26:14.415Z,4.56
2023-01-30T00:28:43.658Z,4.56
2023-01-30T00:31:11.818Z,4.55
2023-01-30T00:33:40.020Z,4.55
2023-01-30T00:36:09.927Z,4.56
2023-01-30T00:38:38.973Z,4.55
2023-01-30T00:41:10.903Z,4.55
2023-01-30T00:43:57.796Z,4.55
2023-01-30T00:46:53.093Z,4.55
2023-01-30T00:49:22.198Z,4.54
2023-01-30T00:51:50.296Z,4.55
2023-01-30T00:54:18.364Z,4.55
2023-01-30T00:56:46.489Z,4.54
2023-01-30T00:59:15.111Z,4.55
2023-01-30T01:01:43.240Z,4.54
2023-01-30T01:04:11.883Z,4.55
2023-01-30T01:06:40.992Z,4.55
2023-01-30T01:09:09.564Z,4.55
2023-01-30T01:11:37.740Z,4.56
2023-01-30T01:14:06.749Z,4.57
2023-01-30T01:16:36.046Z,4.59
2023-01-30T01:19:04.648Z,4.59
2023-01-30T01:21:33.020Z,4.59
2023-01-30T01:24:01.309Z,4.59
2023-01-30T01:26:29.733Z,4.60
2023-01-30T01:28:59.307Z,4.61
2023-01-30T01:31:27.581Z,4.61
2023-01-30T01:33:57.790Z,4.61
2023-01-30T01:36:53.105Z,4.61
2023-01-30T01:39:16.980Z,4.61
2023-01-30T01:41:45.065Z,4.61
2023-01-30T01:44:14.584Z,4.61
2023-01-30T01:46:48.802Z,4.61
2023-01-30T01:49:24.140Z,4.61
2023-01-30T01:51:58.141Z,4.62
2023-01-30T01:54:47.392Z,4.62
2023-01-30T01:57:22.375Z,4.63
2023-01-30T02:00:02.691Z,4.63
2023-01-30T02:02:44.078Z,4.63
2023-01-30T02:05:16.612Z,4.63
2023-01-30T02:08:01.391Z,4.63
2023-01-30T02:11:09.894Z,4.63
2023-01-30T02:13:38.896Z,4.63
2023-01-30T02:16:09.412Z,4.63
2023-01-30T02:18:42.078Z,4.63
2023-01-30T02:21:33.702Z,4.63
2023-01-30T02:24:27.168Z,4.62
2023-01-30T02:27:01.290Z,4.63
2023-01-30T02:30:05.216Z,4.63
2023-01-30T02:32:45.654Z,4.64
2023-01-30T02:35:21.397Z,4.62
2023-01-30T02:37:56.026Z,4.63
2023-01-30T02:40:39.597Z,4.62
2023-01-30T02:43:17.961Z,4.61
2023-01-30T02:46:22.370Z,4.59
2023-01-30T02:48:57.295Z,4.59
2023-01-30T02:51:32.223Z,4.59
2023-01-30T02:54:01.026Z,4.58
2023-01-30T02:56:29.210Z,4.57
2023-01-30T02:59:07.201Z,4.56
2023-01-30T03:01:54.522Z,4.56
2023-01-30T03:04:47.452Z,4.56
2023-01-30T03:07:38.560Z,4.54
2023-01-30T03:10:34.895Z,4.51
2023-01-30T03:13:33.248Z,4.50
2023-01-30T03:16:38.166Z,4.50
2023-01-30T03:19:12.276Z,4.49
2023-01-30T03:21:45.067Z,4.50
2023-01-30T03:24:14.261Z,4.50
2023-01-30T03:27:03.695Z,4.50
2023-01-30T03:29:33.846Z,4.50
2023-01-30T03:32:01.966Z,4.51
2023-01-30T03:34:30.830Z,4.50
2023-01-30T03:36:58.894Z,4.49
2023-01-30T03:39:27.898Z,4.48
2023-01-30T03:41:56.380Z,4.47
2023-01-30T03:44:24.559Z,4.47
2023-01-30T03:46:52.936Z,4.47
2023-01-30T03:49:21.934Z,4.47
2023-01-30T03:51:50.085Z,4.47
2023-01-30T03:54:18.602Z,4.49
2023-01-30T03:56:46.917Z,4.49
2023-01-30T03:59:15.033Z,4.49
2023-01-30T04:01:49.691Z,4.49
2023-01-30T04:04:17.971Z,4.49
2023-01-30T04:06:46.077Z,4.48
2023-01-30T04:09:14.432Z,4.47
2023-01-30T04:11:46.312Z,4.48
2023-01-30T04:14:14.571Z,4.48
2023-01-30T04:17:05.589Z,4.49
2023-01-30T04:19:59.829Z,4.48
2023-01-30T04:22:28.643Z,4.49
2023-01-30T04:24:56.742Z,4.48
2023-01-30T04:27:25.000Z,4.47
2023-01-30T04:30:16.410Z,4.46
2023-01-30T04:32:45.106Z,4.46
2023-01-30T04:35:13.378Z,4.47
2023-01-30T04:37:42.167Z,4.47
2023-01-30T04:40:11.523Z,4.46
2023-01-30T04:42:40.160Z,4.45
2023-01-30T04:45:34.336Z,4.44
2023-01-30T04:48:03.224Z,4.45
2023-01-30T04:50:33.060Z,4.44
2023-01-30T04:53:01.864Z,4.44
2023-01-30T04:55:30.222Z,4.45
2023-01-30T04:57:58.424Z,4.45
2023-01-30T05:00:27.345Z,4.46
2023-01-30T05:02:58.753Z,4.46
2023-01-30T05:05:28.375Z,4.45
2023-01-30T05:07:56.533Z,4.44
2023-01-30T05:10:24.815Z,4.44
2023-01-30T05:12:53.000Z,4.44
2023-01-30T05:15:21.267Z,4.43
2023-01-30T05:17:49.471Z,4.42
2023-01-30T05:20:18.041Z,4.41
2023-01-30T05:22:46.254Z,4.40
2023-01-30T05:25:14.401Z,4.40
2023-01-30T05:27:42.352Z,4.41
2023-01-30T05:30:11.174Z,4.41
2023-01-30T05:32:39.352Z,4.42
2023-01-30T05:35:08.554Z,4.42
2023-01-30T05:37:38.065Z,4.41
2023-01-30T05:40:06.856Z,4.40
2023-01-30T05:42:34.835Z,4.38
2023-01-30T05:45:03.172Z,4.38
2023-01-30T05:47:31.194Z,4.37
2023-01-30T05:49:59.359Z,4.35
2023-01-30T05:52:27.439Z,4.35
2023-01-30T05:54:55.580Z,4.35
2023-01-30T05:57:23.696Z,4.36
2023-01-30T05:59:52.075Z,4.35
2023-01-30T06:02:20.242Z,4.34
2023-01-30T06:04:48.431Z,4.34
2023-01-30T06:07:16.610Z,4.32
2023-01-30T06:09:44.694Z,4.32
2023-01-30T06:12:12.975Z,4.32
2023-01-30T06:14:40.975Z,4.34
2023-01-30T06:17:09.038Z,4.33
2023-01-30T06:19:37.302Z,4.32
2023-01-30T06:22:05.577Z,4.32
2023-01-30T06:24:33.774Z,4.31
2023-01-30T06:27:02.048Z,4.32
2023-01-30T06:29:30.122Z,4.34
2023-01-30T06:31:58.095Z,4.35
2023-01-30T06:34:26.054Z,4.35
2023-01-30T06:36:54.145Z,4.35
2023-01-30T06:39:22.113Z,4.35
2023-01-30T06:41:50.197Z,4.34
2023-01-30T06:44:18.169Z,4.34
2023-01-30T06:46:46.176Z,4.33
2023-01-30T06:49:14.213Z,4.31
2023-01-30T06:51:42.389Z,4.30
2023-01-30T06:54:10.444Z,4.28
2023-01-30T06:56:38.445Z,4.26
2023-01-30T06:59:06.466Z,4.25
2023-01-30T07:01:34.826Z,4.24
2023-01-30T07:04:02.942Z,4.23
2023-01-30T07:06:31.061Z,4.22
2023-01-30T07:08:59.441Z,4.23
2023-01-30T07:11:27.704Z,4.23
2023-01-30T07:13:55.763Z,4.24
2023-01-30T07:16:29.437Z,4.26
2023-01-30T07:18:58.814Z,4.28
2023-01-30T07:21:27.603Z,4.29
2023-01-30T07:23:55.883Z,4.31
2023-01-30T07:26:25.081Z,4.33
2023-01-30T07:28:53.378Z,4.36
2023-01-30T07:31:21.392Z,4.38
2023-01-30T07:33:49.411Z,4.40
2023-01-30T07:36:17.385Z,4.43
2023-01-30T07:38:47.809Z,4.46
2023-01-30T07:41:15.834Z,4.48
2023-01-30T07:43:43.745Z,4.51
2023-01-30T07:46:11.742Z,4.55
2023-01-30T07:48:39.824Z,4.59
2023-01-30T07:51:07.893Z,4.61
2023-01-30T07:53:35.834Z,4.64
2023-01-30T07:56:11.047Z,4.66
2023-01-30T07:58:39.188Z,4.66
2023-01-30T08:01:07.189Z,4.68
2023-01-30T08:03:35.403Z,4.72
2023-01-30T08:06:03.513Z,4.77
2023-01-30T08:08:31.439Z,4.82
2023-01-30T08:10:59.338Z,4.87
2023-01-30T08:13:27.433Z,4.92
2023-01-30T08:15:55.512Z,4.99
2023-01-30T08:18:23.517Z,5.05
2023-01-30T08:20:51.564Z,5.11
2023-01-30T08:23:19.522Z,5.18
2023-01-30T08:25:47.425Z,5.25
2023-01-30T08:28:15.478Z,5.31
2023-01-30T08:30:43.780Z,5.37
2023-01-30T08:33:12.047Z,5.43
2023-01-30T08:35:41.354Z,5.49
2023-01-30T08:38:09.335Z,5.55
2023-01-30T08:40:37.921Z,5.61
2023-01-30T08:43:06.905Z,5.67
2023-01-30T08:45:35.381Z,5.73
2023-01-30T08:48:06.092Z,5.78
2023-01-30T08:50:34.710Z,5.84
2023-01-30T08:53:05.646Z,5.90
2023-01-30T08:55:33.843Z,5.97
2023-01-30T08:58:01.998Z,6.04
2023-01-30T09:00:30.394Z,6.10
2023-01-30T09:02:58.792Z,6.16
2023-01-30T09:05:26.964Z,6.22
2023-01-30T09:07:55.148Z,6.27
2023-01-30T09:10:24.430Z,6.34
2023-01-30T09:12:52.531Z,6.41
2023-01-30T09:15:20.715Z,6.48
2023-01-30T09:17:48.982Z,6.54
2023-01-30T09:20:18.988Z,6.61
2023-01-30T09:22:47.489Z,6.68
2023-01-30T09:25:15.773Z,6.75
2023-01-30T09:27:44.772Z,6.80
2023-01-30T09:30:13.353Z,6.87
2023-01-30T09:32:41.434Z,6.92
2023-01-30T09:35:09.817Z,6.98
2023-01-30T09:37:37.992Z,7.04
2023-01-30T09:40:06.993Z,7.09
2023-01-30T09:42:40.797Z,7.16
2023-01-30T09:46:05.900Z,7.21
2023-01-30T09:48:43.265Z,7.31
2023-01-30T09:51:26.380Z,7.37
2023-01-30T09:54:15.451Z,7.43
2023-01-30T09:56:43.621Z,7.51
2023-01-30T09:59:22.422Z,7.56
2023-01-30T10:02:15.666Z,7.63
2023-01-30T10:05:00.654Z,7.70
2023-01-30T10:08:08.004Z,7.77
2023-01-30T10:10:38.927Z,7.86
2023-01-30T10:13:26.693Z,7.93
2023-01-30T10:16:04.038Z,8.02
2023-01-30T10:19:08.689Z,8.11
2023-01-30T10:21:50.489Z,8.21
2023-01-30T10:24:33.289Z,8.30
2023-01-30T10:27:04.830Z,8.40
2023-01-30T10:29:39.181Z,8.49
2023-01-30T10:32:15.832Z,8.59
2023-01-30T10:34:49.853Z,8.70
2023-01-30T10:37:29.995Z,8.77
2023-01-30T10:40:23.251Z,8.86
2023-01-30T10:43:10.056Z,8.95
2023-01-30T10:46:08.218Z,9.00
2023-01-30T10:48:46.712Z,9.01
2023-01-30T10:51:18.043Z,9.00
2023-01-30T10:54:02.320Z,9.00
2023-01-30T10:56:45.653Z,9.02
2023-01-30T10:59:35.131Z,9.04
2023-01-30T11:02:13.937Z,9.06
2023-01-30T11:05:13.319Z,9.08
2023-01-30T11:07:43.469Z,9.09
2023-01-30T11:10:21.253Z,9.13
2023-01-30T11:12:58.201Z,9.16
2023-01-30T11:15:42.759Z,9.18
2023-01-30T11:18:49.725Z,9.21
2023-01-30T11:21:06.787Z,9.25
2023-01-30T11:23:43.432Z,9.28
2023-01-30T11:26:46.867Z,9.30
2023-01-30T11:29:15.721Z,9.33
2023-01-30T11:31:50.019Z,9.34
2023-01-30T11:34:21.500Z,9.37
2023-01-30T11:36:50.490Z,9.39
2023-01-30T11:39:23.991Z,9.40
2023-01-30T11:41:58.871Z,9.40
2023-01-30T11:44:32.897Z,9.42
2023-01-30T11:47:06.946Z,9.45
2023-01-30T11:49:46.340Z,9.46
2023-01-30T11:52:31.864Z,9.50
2023-01-30T11:55:08.702Z,9.51
2023-01-30T11:57:58.749Z,9.53
2023-01-30T12:00:38.851Z,9.54
2023-01-30T12:03:12.995Z,9.56
2023-01-30T12:05:42.798Z,9.57
2023-01-30T12:08:17.488Z,9.59
2023-01-30T12:11:01.577Z,9.60
2023-01-30T12:13:43.647Z,9.63
2023-01-30T12:16:32.483Z,9.66
2023-01-30T12:19:39.955Z,9.68
2023-01-30T12:22:31.679Z,9.71
2023-01-30T12:25:02.183Z,9.74
2023-01-30T12:27:46.261Z,9.76
2023-01-30T12:30:36.761Z,9.80
2023-01-30T12:33:07.078Z,9.84
2023-01-30T12:35:48.187Z,9.87
2023-01-30T12:38:51.636Z,9.92
2023-01-30T12:41:42.634Z,9.95
2023-01-30T12:44:55.358Z,10.00
2023-01-30T12:47:38.452Z,10.03
2023-01-30T12:50:37.563Z,10.07
2023-01-30T12:53:33.235Z,10.09
2023-01-30T12:56:10.737Z,10.12
2023-01-30T12:58:44.063Z,10.14
2023-01-30T13:01:43.312Z,10.13
2023-01-30T13:05:04.071Z,10.08
2023-01-30T13:07:44.467Z,10.02
2023-01-30T13:10:40.739Z,9.96
2023-01-30T13:13:27.061Z,9.84
2023-01-30T13:16:19.606Z,9.77
2023-01-30T13:19:14.478Z,9.71
2023-01-30T13:22:07.097Z,9.65
2023-01-30T13:24:47.432Z,9.59
2023-01-30T13:27:19.781Z,9.53
2023-01-30T13:29:49.365Z,9.47
2023-01-30T13:32:43.532Z,9.43
2023-01-30T13:35:19.314Z,9.38
2023-01-30T13:37:49.807Z,9.31
2023-01-30T13:40:21.757Z,9.27
2023-01-30T13:43:11.442Z,9.23
2023-01-30T13:45:45.230Z,9.18
2023-01-30T13:48:25.399Z,9.14
2023-01-30T13:51:13.115Z,9.10
2023-01-30T13:54:05.972Z,9.06
2023-01-30T13:56:57.995Z,9.01
2023-01-30T13:59:47.191Z,8.96
2023-01-30T14:02:19.591Z,8.92
2023-01-30T14:04:55.990Z,8.89
2023-01-30T14:07:30.092Z,8.85
2023-01-30T14:10:10.629Z,8.83
2023-01-30T14:12:52.651Z,8.79
2023-01-30T14:15:31.889Z,8.75
2023-01-30T14:18:07.631Z,8.72
2023-01-30T14:20:47.527Z,8.67
2023-01-30T14:23:32.256Z,8.60
2023-01-30T14:26:01.340Z,8.54
2023-01-30T14:28:30.348Z,8.49
2023-01-30T14:31:02.899Z,8.45
2023-01-30T14:33:34.897Z,8.41
2023-01-30T14:36:02.950Z,8.36
2023-01-30T14:38:33.289Z,8.32
2023-01-30T14:41:01.362Z,8.28
2023-01-30T14:43:42.054Z,8.22
2023-01-30T14:46:16.341Z,8.18
2023-01-30T14:48:48.526Z,8.13
2023-01-30T14:51:36.452Z,8.07
2023-01-30T14:54:14.556Z,8.03
2023-01-30T14:56:54.913Z,7.99
2023-01-30T14:59:28.959Z,7.94
2023-01-30T15:02:15.203Z,7.90
2023-01-30T15:04:56.503Z,7.85
2023-01-30T15:07:43.501Z,7.80
2023-01-30T15:10:35.318Z,7.76
2023-01-30T15:13:22.016Z,7.73
2023-01-30T15:16:13.605Z,7.68
2023-01-30T15:19:05.456Z,7.64
2023-01-30T15:21:37.515Z,7.60
2023-01-30T15:24:43.559Z,7.56
2023-01-30T15:27:53.493Z,7.52
2023-01-30T15:30:36.940Z,7.49
2023-01-30T15:33:31.107Z,7.46
2023-01-30T15:36:17.375Z,7.43
2023-01-30T15:38:45.394Z,7.40
2023-01-30T15:41:13.530Z,7.38
2023-01-30T15:44:02.685Z,7.36
2023-01-30T15:46:33.494Z,7.34
2023-01-30T15:49:26.574Z,7.31
2023-01-30T15:51:54.545Z,7.28
2023-01-30T15:54:24.357Z,7.26
2023-01-30T15:56:53.566Z,7.22
2023-01-30T15:59:35.709Z,7.21
2023-01-30T16:02:15.865Z,7.19
2023-01-30T16:04:44.504Z,7.17
2023-01-30T16:07:26.915Z,7.16
2023-01-30T16:10:07.337Z,7.15
2023-01-30T16:12:40.953Z,7.14
2023-01-30T16:15:19.876Z,7.11
2023-01-30T16:17:58.393Z,7.09
2023-01-30T16:20:26.895Z,7.08
2023-01-30T16:22:55.161Z,7.06
2023-01-30T16:25:26.909Z,7.04
2023-01-30T16:27:55.071Z,7.02
2023-01-30T16:30:29.890Z,7.01
2023-01-30T16:32:58.317Z,7.00
2023-01-30T16:35:31.103Z,6.99
2023-01-30T16:38:01.031Z,6.98
2023-01-30T16:40:45.718Z,6.96
2023-01-30T16:43:24.917Z,6.95
2023-01-30T16:46:12.998Z,6.95
2023-01-30T16:48:43.373Z,6.93
2023-01-30T16:51:20.864Z,6.92
2023-01-30T16:54:02.451Z,6.90
2023-01-30T16:56:34.638Z,6.90
2023-01-30T16:59:03.716Z,6.88
2023-01-30T17:01:37.298Z,6.87
2023-01-30T17:04:09.040Z,6.86
2023-01-30T17:06:40.253Z,6.86
2023-01-30T17:09:33.904Z,6.85
2023-01-30T17:12:22.539Z,6.85
2023-01-30T17:14:50.711Z,6.83
2023-01-30T17:17:19.909Z,6.81
2023-01-30T17:19:48.809Z,6.79
2023-01-30T17:22:25.275Z,6.77
2023-01-30T17:24:59.283Z,6.75
2023-01-30T17:27:29.004Z,6.73
2023-01-30T17:29:57.084Z,6.72
2023-01-30T17:32:28.593Z,6.71
2023-01-30T17:34:56.610Z,6.70
2023-01-30T17:37:24.583Z,6.69
2023-01-30T17:39:52.660Z,6.67
2023-01-30T17:42:22.455Z,6.66
2023-01-30T17:44:50.757Z,6.63
2023-01-30T17:47:18.732Z,6.62
2023-01-30T17:49:46.816Z,6.61
2023-01-30T17:52:14.893Z,6.60
2023-01-30T17:54:43.022Z,6.60
2023-01-30T17:57:15.261Z,6.59
2023-01-30T17:59:43.513Z,6.60
2023-01-30T18:02:11.596Z,6.60
2023-01-30T18:04:40.388Z,6.59
2023-01-30T18:07:12.866Z,6.59
2023-01-30T18:09:40.910Z,6.64
2023-01-30T18:12:08.909Z,6.70
2023-01-30T18:14:37.006Z,6.78
2023-01-30T18:17:05.106Z,6.89
2023-01-30T18:19:33.242Z,6.98
2023-01-30T18:22:01.247Z,7.07
2023-01-30T18:24:29.389Z,7.16
2023-01-30T18:26:57.967Z,7.24
2023-01-30T18:29:27.033Z,7.32
2023-01-30T18:31:55.165Z,7.36
2023-01-30T18:34:23.131Z,7.39
2023-01-30T18:36:51.215Z,7.40
2023-01-30T18:39:19.499Z,7.38
2023-01-30T18:41:47.471Z,7.36
2023-01-30T18:44:15.395Z,7.32
2023-01-30T18:46:43.656Z,7.27
2023-01-30T18:49:11.791Z,7.23
2023-01-30T18:51:40.589Z,7.19
2023-01-30T18:54:08.669Z,7.16
2023-01-30T18:56:37.267Z,7.11
2023-01-30T18:59:06.961Z,7.08
2023-01-30T19:01:42.542Z,7.04
2023-01-30T19:04:11.803Z,7.01
2023-01-30T19:06:42.560Z,6.96
2023-01-30T19:09:16.057Z,6.93
2023-01-30T19:12:02.763Z,6.90
2023-01-30T19:14:30.743Z,6.88
2023-01-30T19:16:58.695Z,6.87
2023-01-30T19:19:27.316Z,6.86
2023-01-30T19:21:55.361Z,6.84
2023-01-30T19:24:24.014Z,6.82
2023-01-30T19:26:52.387Z,6.80
2023-01-30T19:29:20.438Z,6.79
2023-01-30T19:31:48.511Z,6.77
2023-01-30T19:34:17.184Z,6.75
2023-01-30T19:36:45.153Z,6.73
2023-01-30T19:39:13.374Z,6.71
2023-01-30T19:41:41.337Z,6.69
2023-01-30T19:44:11.851Z,6.67
2023-01-30T19:46:39.964Z,6.65
2023-01-30T19:49:08.005Z,6.63
2023-01-30T19:51:36.206Z,6.63
2023-01-30T19:54:09.661Z,6.61
2023-01-30T19:56:41.033Z,6.60
2023-01-30T19:59:12.981Z,6.59
2023-01-30T20:01:41.119Z,6.58
2023-01-30T20:04:09.947Z,6.57
2023-01-30T20:06:38.868Z,6.57
2023-01-30T20:09:11.148Z,6.55
2023-01-30T20:11:41.713Z,6.54
2023-01-30T20:14:10.809Z,6.54
2023-01-30T20:16:39.649Z,6.53
2023-01-30T20:19:12.948Z,6.52
2023-01-30T20:21:41.335Z,6.49
2023-01-30T20:24:14.732Z,6.47
2023-01-30T20:26:47.146Z,6.44
2023-01-30T20:29:17.677Z,6.42
2023-01-30T20:31:46.033Z,6.41
2023-01-30T20:34:15.339Z,6.42
2023-01-30T20:36:43.523Z,6.41
2023-01-30T20:39:11.806Z,6.40
2023-01-30T20:41:40.075Z,6.38
2023-01-30T20:44:11.836Z,6.35
2023-01-30T20:46:42.725Z,6.33
2023-01-30T20:49:24.053Z,6.31
2023-01-30T20:51:54.379Z,6.29
2023-01-30T20:54:23.489Z,6.26
2023-01-30T20:56:53.387Z,6.22
2023-01-30T20:59:24.452Z,6.20
2023-01-30T21:01:53.248Z,6.19
2023-01-30T21:04:24.514Z,6.16
2023-01-30T21:06:52.597Z,6.14
2023-01-30T21:09:23.119Z,6.13
2023-01-30T21:11:53.385Z,6.10
2023-01-30T21:14:21.963Z,6.08
2023-01-30T21:16:50.259Z,6.06
2023-01-30T21:19:18.552Z,6.04
2023-01-30T21:21:53.413Z,6.01
2023-01-30T21:24:26.334Z,5.99
2023-01-30T21:26:55.602Z,5.96
2023-01-30T21:29:25.853Z,5.94
2023-01-30T21:31:55.673Z,5.92
2023-01-30T21:34:25.043Z,5.90
2023-01-30T21:37:12.043Z,5.88
2023-01-30T21:39:58.781Z,5.84
2023-01-30T21:42:47.282Z,5.80
2023-01-30T21:45:15.787Z,5.76
2023-01-30T21:47:43.752Z,5.74
2023-01-30T21:50:12.005Z,5.72
2023-01-30T21:52:40.137Z,5.70
2023-01-30T21:55:09.095Z,5.69
2023-01-30T21:57:37.585Z,5.67
2023-01-30T22:00:06.373Z,5.65
2023-01-30T22:02:34.355Z,5.64
2023-01-30T22:05:02.335Z,5.63
2023-01-30T22:07:32.108Z,5.62
2023-01-30T22:10:02.306Z,5.62
2023-01-30T22:12:32.184Z,5.62
2023-01-30T22:15:00.165Z,5.63
2023-01-30T22:17:28.320Z,5.63
2023-01-30T22:19:56.447Z,5.63
2023-01-30T22:22:25.534Z,5.62
2023-01-30T22:24:53.489Z,5.61
2023-01-30T22:27:21.462Z,5.59
2023-01-30T22:29:49.408Z,5.59
2023-01-30T22:32:17.407Z,5.60
2023-01-30T22:34:45.406Z,5.61
2023-01-30T22:37:16.502Z,5.61
2023-01-30T22:39:44.498Z,5.60
2023-01-30T22:42:12.596Z,5.59
2023-01-30T22:44:40.657Z,5.57
2023-01-30T22:47:08.871Z,5.57
2023-01-30T22:49:37.052Z,5.56
2023-01-30T22:52:05.265Z,5.55
2023-01-30T22:54:33.270Z,5.54
2023-01-30T22:57:01.247Z,5.54
2023-01-30T22:59:29.517Z,5.54
2023-01-30T23:01:57.663Z,5.55
2023-01-30T23:04:26.500Z,5.54
2023-01-30T23:06:54.465Z,5.54
2023-01-30T23:09:23.592Z,5.54
2023-01-30T23:12:15.798Z,5.54
2023-01-30T23:14:45.170Z,5.54
2023-01-30T23:17:31.929Z,5.54
2023-01-30T23:19:59.886Z,5.52
2023-01-30T23:22:28.261Z,5.52
2023-01-30T23:24:56.354Z,5.52
2023-01-30T23:27:24.415Z,5.52
2023-01-30T23:29:52.385Z,5.52
2023-01-30T23:32:20.662Z,5.51
2023-01-30T23:34:48.643Z,5.51
2023-01-30T23:37:17.265Z,5.51
2023-01-30T23:39:45.607Z,5.52
2023-01-30T23:42:13.510Z,5.52
2023-01-30T23:44:41.703Z,5.52
2023-01-30T23:47:09.642Z,5.52
2023-01-30T23:49:37.904Z,5.51
2023-01-30T23:52:06.103Z,5.50
2023-01-30T23:54:34.081Z,5.50
2023-01-30T23:57:02.023Z,5.48
2023-01-30T23:59:30.228Z,5.47
